createdAt,value
2023-01-19T00:00:43.371Z,0.00
2023-01-19T00:01:43.176Z,0.00
2023-01-19T00:02:43.109Z,0.00
2023-01-19T00:03:42.993Z,0.00
2023-01-19T00:04:42.948Z,0.00
2023-01-19T00:05:42.809Z,0.00
2023-01-19T00:06:42.753Z,0.00
2023-01-19T00:07:42.635Z,0.00
2023-01-19T00:08:42.541Z,0.00
2023-01-19T00:09:42.456Z,0.00
2023-01-19T00:10:42.370Z,0.00
2023-01-19T00:11:42.270Z,0.00
2023-01-19T00:12:42.181Z,0.00
2023-01-19T00:13:42.098Z,0.00
2023-01-19T00:14:42.001Z,0.00
2023-01-19T00:15:41.911Z,0.00
2023-01-19T00:16:41.846Z,0.00
2023-01-19T00:17:41.731Z,0.00
2023-01-19T00:18:41.643Z,0.00
2023-01-19T00:19:41.571Z,0.00
2023-01-19T00:20:41.482Z,0.00
2023-01-19T00:21:41.374Z,0.00
2023-01-19T00:22:41.285Z,0.00
2023-01-19T00:23:41.345Z,0.00
2023-01-19T00:24:41.107Z,0.00
2023-01-19T00:25:41.015Z,0.00
2023-01-19T00:26:40.934Z,0.00
2023-01-19T00:27:40.843Z,0.00
2023-01-19T00:28:40.753Z,0.00
2023-01-19T00:29:40.660Z,0.00
2023-01-19T00:30:40.570Z,0.00
2023-01-19T00:31:40.506Z,0.00
2023-01-19T00:32:40.408Z,0.00
2023-01-19T00:33:40.298Z,0.00
2023-01-19T00:34:40.208Z,0.00
2023-01-19T00:35:40.129Z,0.00
2023-01-19T00:36:40.041Z,0.00
2023-01-19T00:37:39.941Z,0.00
2023-01-19T00:38:39.897Z,0.00
2023-01-19T00:39:39.771Z,0.00
2023-01-19T00:40:39.693Z,0.00
2023-01-19T00:41:39.583Z,0.00
2023-01-19T00:42:39.494Z,0.00
2023-01-19T00:43:39.402Z,0.00
2023-01-19T00:44:39.315Z,0.00
2023-01-19T00:45:39.249Z,0.00
2023-01-19T00:46:39.132Z,0.00
2023-01-19T00:47:39.048Z,0.00
2023-01-19T00:48:38.984Z,0.00
2023-01-19T00:49:38.865Z,0.00
2023-01-19T00:50:38.778Z,0.00
2023-01-19T00:51:38.685Z,0.00
2023-01-19T00:52:38.604Z,0.00
2023-01-19T00:53:38.508Z,0.00
2023-01-19T00:54:38.416Z,0.00
2023-01-19T00:55:38.330Z,0.00
2023-01-19T00:56:38.237Z,0.00
2023-01-19T00:57:38.149Z,0.00
2023-01-19T00:58:38.057Z,0.00
2023-01-19T00:59:37.972Z,0.00
2023-01-19T01:00:37.878Z,0.00
2023-01-19T01:01:45.429Z,0.00
2023-01-19T01:02:37.923Z,0.00
2023-01-19T01:03:38.065Z,0.00
2023-01-19T01:04:37.541Z,0.00
2023-01-19T01:05:37.433Z,0.00
2023-01-19T01:06:37.342Z,0.00
2023-01-19T01:07:37.253Z,0.00
2023-01-19T01:08:37.215Z,0.00
2023-01-19T01:09:37.101Z,0.00
2023-01-19T01:10:36.985Z,0.00
2023-01-19T01:11:36.894Z,0.00
2023-01-19T01:12:36.822Z,0.00
2023-01-19T01:13:36.717Z,0.00
2023-01-19T01:14:36.630Z,0.00
2023-01-19T01:15:36.547Z,0.00
2023-01-19T01:16:36.516Z,0.00
2023-01-19T01:17:36.362Z,0.00
2023-01-19T01:18:36.269Z,0.00
2023-01-19T01:19:36.189Z,0.00
2023-01-19T01:20:36.109Z,0.00
2023-01-19T01:21:35.998Z,0.00
2023-01-19T01:22:35.912Z,0.00
2023-01-19T01:23:35.828Z,0.00
2023-01-19T01:24:35.752Z,0.00
2023-01-19T01:25:35.641Z,0.00
2023-01-19T01:26:35.554Z,0.00
2023-01-19T01:27:35.464Z,0.00
2023-01-19T01:28:35.373Z,0.00
2023-01-19T01:29:35.288Z,0.00
2023-01-19T01:30:35.193Z,0.00
2023-01-19T01:31:35.172Z,0.00
2023-01-19T01:32:35.016Z,0.00
2023-01-19T01:33:40.653Z,0.00
2023-01-19T01:34:35.134Z,0.00
2023-01-19T01:35:34.757Z,0.00
2023-01-19T01:36:34.679Z,0.00
2023-01-19T01:37:34.572Z,0.00
2023-01-19T01:38:34.482Z,0.00
2023-01-19T01:39:34.390Z,0.00
2023-01-19T01:40:34.297Z,0.00
2023-01-19T01:41:34.209Z,0.00
2023-01-19T01:42:34.126Z,0.00
2023-01-19T01:43:34.028Z,0.00
2023-01-19T01:44:33.940Z,0.00
2023-01-19T01:45:33.973Z,0.00
2023-01-19T01:46:33.761Z,0.00
2023-01-19T01:47:33.676Z,0.00
2023-01-19T01:48:33.582Z,0.00
2023-01-19T01:49:33.490Z,0.00
2023-01-19T01:50:33.408Z,0.00
2023-01-19T01:51:33.310Z,0.00
2023-01-19T01:52:33.243Z,0.00
2023-01-19T01:53:33.483Z,0.00
2023-01-19T01:54:33.049Z,0.00
2023-01-19T01:55:33.002Z,0.00
2023-01-19T01:56:32.875Z,0.00
2023-01-19T01:57:32.780Z,0.00
2023-01-19T01:58:32.684Z,0.00
2023-01-19T01:59:32.593Z,0.00
2023-01-19T02:00:32.510Z,0.00
2023-01-19T02:01:32.535Z,0.00
2023-01-19T02:02:32.326Z,0.00
2023-01-19T02:03:32.288Z,0.00
2023-01-19T02:04:32.155Z,0.00
2023-01-19T02:05:32.057Z,0.00
2023-01-19T02:06:31.967Z,0.00
2023-01-19T02:07:31.883Z,0.00
2023-01-19T02:08:32.157Z,0.00
2023-01-19T02:09:31.704Z,0.00
2023-01-19T02:10:31.860Z,0.00
2023-01-19T02:11:31.520Z,0.00
2023-01-19T02:12:31.430Z,0.00
2023-01-19T02:13:31.343Z,0.00
2023-01-19T02:14:31.262Z,0.00
2023-01-19T02:15:31.162Z,0.00
2023-01-19T02:16:31.091Z,0.00
2023-01-19T02:17:30.988Z,0.00
2023-01-19T02:18:30.916Z,0.00
2023-01-19T02:19:30.811Z,0.00
2023-01-19T02:20:30.713Z,0.00
2023-01-19T02:21:30.626Z,0.00
2023-01-19T02:22:30.562Z,0.00
2023-01-19T02:23:30.450Z,0.00
2023-01-19T02:24:30.380Z,0.00
2023-01-19T02:25:30.266Z,0.00
2023-01-19T02:26:30.190Z,0.00
2023-01-19T02:27:30.098Z,0.00
2023-01-19T02:28:30.000Z,0.00
2023-01-19T02:29:29.910Z,0.00
2023-01-19T02:30:29.885Z,0.00
2023-01-19T02:31:29.730Z,0.00
2023-01-19T02:32:29.643Z,0.00
2023-01-19T02:33:29.561Z,0.00
2023-01-19T02:34:29.463Z,0.00
2023-01-19T02:35:29.376Z,0.00
2023-01-19T02:36:29.286Z,0.00
2023-01-19T02:37:29.200Z,0.00
2023-01-19T02:38:29.109Z,0.00
2023-01-19T02:39:29.028Z,0.00
2023-01-19T02:40:28.950Z,0.00
2023-01-19T02:41:28.840Z,0.00
2023-01-19T02:42:28.750Z,0.00
2023-01-19T02:43:28.657Z,0.00
2023-01-19T02:44:28.571Z,0.00
2023-01-19T02:45:28.479Z,0.00
2023-01-19T02:46:28.641Z,0.00
2023-01-19T02:47:28.301Z,0.00
2023-01-19T02:48:28.217Z,0.00
2023-01-19T02:49:28.123Z,0.00
2023-01-19T02:50:28.035Z,0.00
2023-01-19T02:51:27.949Z,0.00
2023-01-19T02:52:27.858Z,0.00
2023-01-19T02:53:27.768Z,0.00
2023-01-19T02:54:27.688Z,0.00
2023-01-19T02:55:27.591Z,0.00
2023-01-19T02:56:27.528Z,0.00
2023-01-19T02:57:27.422Z,0.00
2023-01-19T02:58:27.472Z,0.00
2023-01-19T02:59:27.227Z,0.00
2023-01-19T03:00:27.145Z,0.00
2023-01-19T03:01:27.198Z,0.00
2023-01-19T03:02:27.007Z,0.00
2023-01-19T03:03:26.876Z,0.00
2023-01-19T03:04:26.934Z,0.00
2023-01-19T03:05:26.708Z,0.00
2023-01-19T03:06:26.609Z,0.00
2023-01-19T03:07:26.518Z,0.00
2023-01-19T03:08:26.438Z,0.00
2023-01-19T03:09:26.352Z,0.00
2023-01-19T03:10:26.556Z,0.00
2023-01-19T03:11:26.196Z,0.00
2023-01-19T03:12:26.091Z,0.00
2023-01-19T03:13:25.982Z,0.00
2023-01-19T03:14:26.096Z,0.00
2023-01-19T03:15:25.897Z,0.00
2023-01-19T03:16:25.756Z,0.00
2023-01-19T03:17:25.633Z,0.00
2023-01-19T03:18:25.542Z,0.00
2023-01-19T03:19:25.449Z,0.00
2023-01-19T03:20:25.378Z,0.00
2023-01-19T03:21:25.277Z,0.00
2023-01-19T03:22:25.187Z,0.00
2023-01-19T03:23:25.094Z,0.00
2023-01-19T03:24:25.015Z,0.00
2023-01-19T03:25:24.918Z,0.00
2023-01-19T03:26:24.831Z,0.00
2023-01-19T03:27:24.742Z,0.00
2023-01-19T03:28:24.671Z,0.00
2023-01-19T03:29:24.568Z,0.00
2023-01-19T03:30:24.474Z,0.00
2023-01-19T03:31:24.382Z,0.00
2023-01-19T03:32:24.294Z,0.00
2023-01-19T03:33:24.203Z,0.00
2023-01-19T03:34:24.113Z,0.00
2023-01-19T03:35:24.023Z,0.00
2023-01-19T03:36:23.940Z,0.00
2023-01-19T03:37:23.847Z,0.00
2023-01-19T03:38:23.763Z,0.00
2023-01-19T03:39:23.673Z,0.00
2023-01-19T03:40:23.580Z,0.00
2023-01-19T03:41:23.491Z,0.00
2023-01-19T03:42:23.402Z,0.00
2023-01-19T03:43:23.313Z,0.00
2023-01-19T03:44:23.371Z,0.00
2023-01-19T03:45:23.136Z,0.00
2023-01-19T03:46:23.061Z,0.00
2023-01-19T03:47:22.956Z,0.00
2023-01-19T03:48:22.871Z,0.00
2023-01-19T03:49:22.781Z,0.00
2023-01-19T03:50:22.692Z,0.00
2023-01-19T03:51:22.605Z,0.00
2023-01-19T03:52:22.513Z,0.00
2023-01-19T03:53:22.433Z,0.00
2023-01-19T03:54:22.342Z,0.00
2023-01-19T03:55:22.246Z,0.00
2023-01-19T03:56:22.182Z,0.00
2023-01-19T03:57:22.069Z,0.00
2023-01-19T03:58:21.979Z,0.00
2023-01-19T03:59:21.896Z,0.00
2023-01-19T04:00:22.021Z,0.00
2023-01-19T04:01:21.778Z,0.00
2023-01-19T04:02:21.958Z,0.00
2023-01-19T04:03:21.538Z,0.00
2023-01-19T04:04:21.446Z,0.00
2023-01-19T04:05:21.361Z,0.00
2023-01-19T04:06:21.274Z,0.00
2023-01-19T04:07:21.186Z,0.00
2023-01-19T04:08:21.089Z,0.00
2023-01-19T04:09:21.009Z,0.00
2023-01-19T04:10:20.918Z,0.00
2023-01-19T04:11:20.854Z,0.00
2023-01-19T04:12:20.740Z,0.00
2023-01-19T04:13:20.649Z,0.00
2023-01-19T04:14:20.560Z,0.00
2023-01-19T04:15:20.572Z,0.00
2023-01-19T04:16:20.509Z,0.00
2023-01-19T04:17:20.292Z,0.00
2023-01-19T04:18:20.203Z,0.00
2023-01-19T04:19:20.112Z,0.00
2023-01-19T04:20:20.033Z,0.00
2023-01-19T04:21:19.936Z,0.00
2023-01-19T04:22:19.847Z,0.00
2023-01-19T04:23:19.758Z,0.00
2023-01-19T04:24:19.665Z,0.00
2023-01-19T04:25:19.577Z,0.00
2023-01-19T04:26:19.841Z,0.00
2023-01-19T04:27:19.401Z,0.00
2023-01-19T04:28:19.315Z,0.00
2023-01-19T04:29:19.221Z,0.00
2023-01-19T04:30:19.132Z,0.00
2023-01-19T04:31:19.066Z,0.00
2023-01-19T04:32:18.977Z,0.00
2023-01-19T04:33:18.873Z,0.00
2023-01-19T04:34:18.773Z,0.00
2023-01-19T04:35:18.691Z,0.00
2023-01-19T04:36:18.598Z,0.00
2023-01-19T04:37:18.512Z,0.00
2023-01-19T04:38:18.417Z,0.00
2023-01-19T04:39:18.328Z,0.00
2023-01-19T04:40:18.253Z,0.00
2023-01-19T04:41:18.553Z,0.00
2023-01-19T04:42:18.057Z,0.00
2023-01-19T04:43:17.972Z,0.00
2023-01-19T04:44:17.884Z,0.00
2023-01-19T04:45:17.803Z,0.00
2023-01-19T04:46:17.732Z,0.00
2023-01-19T04:47:17.626Z,0.00
2023-01-19T04:48:17.549Z,0.00
2023-01-19T04:49:17.437Z,0.00
2023-01-19T04:50:17.346Z,0.00
2023-01-19T04:51:17.260Z,0.00
2023-01-19T04:52:17.168Z,0.00
2023-01-19T04:53:17.077Z,0.00
2023-01-19T04:54:17.002Z,0.00
2023-01-19T04:55:16.897Z,0.00
2023-01-19T04:56:16.808Z,0.00
2023-01-19T04:57:16.719Z,0.00
2023-01-19T04:58:16.633Z,0.00
2023-01-19T04:59:16.546Z,0.00
2023-01-19T05:00:16.452Z,0.00
2023-01-19T05:01:16.394Z,0.00
2023-01-19T05:02:16.282Z,0.00
2023-01-19T05:03:16.237Z,0.00
2023-01-19T05:04:16.114Z,0.00
2023-01-19T05:05:16.005Z,0.00
2023-01-19T05:06:15.915Z,0.00
2023-01-19T05:07:15.826Z,0.00
2023-01-19T05:08:15.736Z,0.00
2023-01-19T05:09:15.675Z,0.00
2023-01-19T05:10:15.557Z,0.00
2023-01-19T05:11:15.473Z,0.00
2023-01-19T05:12:15.384Z,0.00
2023-01-19T05:13:15.289Z,0.00
2023-01-19T05:14:15.199Z,0.00
2023-01-19T05:15:15.125Z,0.00
2023-01-19T05:16:15.046Z,0.00
2023-01-19T05:17:14.930Z,0.00
2023-01-19T05:18:14.842Z,0.00
2023-01-19T05:19:14.945Z,0.00
2023-01-19T05:20:16.365Z,0.00
2023-01-19T05:21:14.574Z,0.00
2023-01-19T05:22:14.482Z,0.00
2023-01-19T05:23:14.399Z,0.00
2023-01-19T05:24:14.302Z,0.00
2023-01-19T05:25:14.225Z,0.00
2023-01-19T05:26:14.131Z,0.00
2023-01-19T05:27:14.039Z,0.00
2023-01-19T05:28:13.946Z,0.00
2023-01-19T05:29:13.859Z,0.00
2023-01-19T05:30:13.765Z,0.00
2023-01-19T05:31:13.856Z,0.00
2023-01-19T05:32:13.598Z,0.00
2023-01-19T05:33:13.499Z,0.00
2023-01-19T05:34:13.407Z,0.00
2023-01-19T05:35:13.318Z,0.00
2023-01-19T05:36:13.250Z,0.00
2023-01-19T05:37:13.140Z,0.00
2023-01-19T05:38:14.505Z,0.00
2023-01-19T05:39:13.115Z,0.00
2023-01-19T05:40:12.871Z,0.00
2023-01-19T05:41:12.800Z,0.00
2023-01-19T05:42:12.695Z,0.00
2023-01-19T05:43:12.602Z,0.00
2023-01-19T05:44:12.615Z,0.00
2023-01-19T05:45:12.467Z,0.00
2023-01-19T05:46:12.335Z,0.00
2023-01-19T05:47:12.246Z,0.00
2023-01-19T05:48:12.165Z,0.00
2023-01-19T05:49:12.072Z,0.00
2023-01-19T05:50:11.978Z,0.00
2023-01-19T05:51:11.890Z,0.00
2023-01-19T05:52:11.819Z,0.00
2023-01-19T05:53:11.709Z,0.00
2023-01-19T05:54:11.615Z,0.00
2023-01-19T05:55:11.537Z,0.00
2023-01-19T05:56:11.788Z,0.00
2023-01-19T05:57:11.351Z,0.00
2023-01-19T05:58:11.254Z,0.00
2023-01-19T05:59:11.182Z,0.00
2023-01-19T06:00:11.099Z,0.00
2023-01-19T06:01:11.010Z,0.00
2023-01-19T06:02:11.112Z,0.00
2023-01-19T06:03:10.839Z,0.00
2023-01-19T06:04:10.727Z,0.00
2023-01-19T06:05:10.636Z,0.00
2023-01-19T06:06:10.556Z,0.00
2023-01-19T06:07:10.455Z,0.00
2023-01-19T06:08:10.386Z,0.00
2023-01-19T06:09:10.275Z,0.00
2023-01-19T06:10:10.188Z,0.00
2023-01-19T06:11:10.099Z,0.00
2023-01-19T06:12:10.005Z,0.00
2023-01-19T06:13:09.919Z,0.00
2023-01-19T06:14:09.830Z,0.00
2023-01-19T06:15:09.739Z,0.00
2023-01-19T06:16:09.919Z,0.00
2023-01-19T06:17:09.564Z,0.00
2023-01-19T06:18:09.471Z,0.00
2023-01-19T06:19:09.382Z,0.00
2023-01-19T06:20:09.293Z,0.00
2023-01-19T06:21:09.207Z,0.00
2023-01-19T06:22:09.114Z,0.00
2023-01-19T06:23:09.026Z,0.00
2023-01-19T06:24:09.027Z,0.00
2023-01-19T06:25:09.003Z,0.00
2023-01-19T06:26:08.756Z,0.00
2023-01-19T06:27:08.669Z,0.00
2023-01-19T06:28:08.581Z,0.00
2023-01-19T06:29:08.490Z,0.00
2023-01-19T06:30:08.399Z,0.00
2023-01-19T06:31:08.327Z,0.00
2023-01-19T06:32:08.232Z,0.00
2023-01-19T06:33:08.136Z,0.00
2023-01-19T06:34:08.046Z,0.00
2023-01-19T06:35:07.968Z,0.00
2023-01-19T06:36:07.866Z,0.00
2023-01-19T06:37:07.780Z,0.00
2023-01-19T06:38:07.688Z,0.00
2023-01-19T06:39:07.603Z,0.00
2023-01-19T06:40:07.542Z,0.00
2023-01-19T06:41:07.423Z,0.00
2023-01-19T06:42:07.379Z,0.00
2023-01-19T06:43:07.241Z,0.00
2023-01-19T06:44:07.153Z,4.00
2023-01-19T06:45:07.112Z,4.00
2023-01-19T06:46:07.003Z,4.00
2023-01-19T06:47:15.304Z,0.00
2023-01-19T06:48:06.842Z,4.00
2023-01-19T06:49:06.711Z,4.00
2023-01-19T06:50:06.615Z,4.00
2023-01-19T06:51:06.530Z,4.00
2023-01-19T06:52:06.733Z,4.00
2023-01-19T06:53:06.358Z,8.00
2023-01-19T06:54:06.260Z,8.00
2023-01-19T06:55:06.171Z,8.00
2023-01-19T06:56:06.101Z,8.00
2023-01-19T06:57:05.994Z,12.00
2023-01-19T06:58:06.110Z,12.00
2023-01-19T06:59:05.813Z,16.00
2023-01-19T07:00:05.736Z,20.00
2023-01-19T07:01:05.814Z,20.00
2023-01-19T07:02:26.358Z,24.00
2023-01-19T07:03:05.505Z,28.00
2023-01-19T07:04:05.365Z,28.00
2023-01-19T07:05:05.274Z,32.00
2023-01-19T07:06:05.187Z,40.00
2023-01-19T07:07:05.097Z,44.00
2023-01-19T07:08:05.008Z,48.00
2023-01-19T07:09:04.919Z,56.00
2023-01-19T07:10:04.928Z,60.00
2023-01-19T07:11:27.173Z,64.00
2023-01-19T07:12:04.667Z,72.00
2023-01-19T07:13:04.760Z,80.00
2023-01-19T07:14:04.471Z,88.00
2023-01-19T07:15:04.384Z,100.00
2023-01-19T07:16:04.300Z,108.00
2023-01-19T07:17:04.412Z,116.00
2023-01-19T07:18:04.163Z,124.00
2023-01-19T07:19:04.027Z,136.00
2023-01-19T07:20:03.941Z,144.00
2023-01-19T07:21:03.906Z,160.00
2023-01-19T07:22:03.754Z,172.00
2023-01-19T07:23:03.751Z,184.00
2023-01-19T07:24:03.579Z,192.00
2023-01-19T07:25:03.499Z,200.00
2023-01-19T07:26:03.401Z,224.00
2023-01-19T07:27:03.365Z,236.00
2023-01-19T07:28:03.244Z,232.00
2023-01-19T07:29:03.134Z,240.00
2023-01-19T07:30:03.080Z,256.00
2023-01-19T07:31:03.009Z,264.00
2023-01-19T07:32:02.862Z,272.00
2023-01-19T07:33:03.249Z,284.00
2023-01-19T07:34:02.685Z,276.00
2023-01-19T07:35:02.602Z,268.00
2023-01-19T07:36:02.517Z,264.00
2023-01-19T07:37:02.418Z,292.00
2023-01-19T07:38:02.326Z,300.00
2023-01-19T07:39:02.245Z,316.00
2023-01-19T07:40:02.148Z,300.00
2023-01-19T07:41:02.062Z,308.00
2023-01-19T07:42:01.973Z,320.00
2023-01-19T07:43:02.354Z,304.00
2023-01-19T07:44:01.866Z,352.00
2023-01-19T07:45:01.705Z,396.00
2023-01-19T07:46:01.706Z,408.00
2023-01-19T07:47:01.525Z,432.00
2023-01-19T07:48:01.436Z,336.00
2023-01-19T07:49:01.347Z,256.00
2023-01-19T07:50:01.312Z,212.00
2023-01-19T07:51:01.192Z,196.00
2023-01-19T07:52:01.078Z,220.00
2023-01-19T07:53:01.683Z,244.00
2023-01-19T07:54:00.898Z,288.00
2023-01-19T07:55:00.821Z,268.00
2023-01-19T07:56:00.734Z,276.00
2023-01-19T07:57:00.644Z,284.00
2023-01-19T07:58:00.561Z,264.00
2023-01-19T07:59:00.457Z,240.00
2023-01-19T08:00:00.485Z,232.00
2023-01-19T08:01:00.761Z,264.00
2023-01-19T08:02:00.514Z,284.00
2023-01-19T08:03:00.563Z,304.00
2023-01-19T08:04:00.013Z,304.00
2023-01-19T08:04:59.928Z,320.00
2023-01-19T08:05:59.838Z,292.00
2023-01-19T08:06:59.752Z,292.00
2023-01-19T08:07:59.678Z,268.00
2023-01-19T08:08:59.570Z,320.00
2023-01-19T08:09:59.479Z,308.00
2023-01-19T08:10:59.393Z,284.00
2023-01-19T08:11:59.308Z,268.00
2023-01-19T08:12:59.630Z,252.00
2023-01-19T08:13:59.125Z,264.00
2023-01-19T08:14:59.038Z,336.00
2023-01-19T08:15:59.080Z,324.00
2023-01-19T08:16:58.859Z,384.00
2023-01-19T08:17:58.777Z,400.00
2023-01-19T08:18:58.681Z,420.00
2023-01-19T08:19:58.592Z,508.00
2023-01-19T08:20:58.504Z,408.00
2023-01-19T08:21:58.416Z,388.00
2023-01-19T08:22:58.752Z,452.00
2023-01-19T08:23:58.348Z,424.00
2023-01-19T08:24:58.150Z,572.00
2023-01-19T08:25:58.070Z,432.00
2023-01-19T08:26:57.975Z,348.00
2023-01-19T08:27:57.885Z,360.00
2023-01-19T08:28:57.797Z,420.00
2023-01-19T08:29:57.708Z,560.00
2023-01-19T08:30:57.952Z,584.00
2023-01-19T08:31:57.784Z,696.00
2023-01-19T08:32:57.445Z,704.00
2023-01-19T08:33:57.352Z,636.00
2023-01-19T08:34:57.263Z,540.00
2023-01-19T08:35:57.184Z,616.00
2023-01-19T08:36:57.099Z,736.00
2023-01-19T08:37:56.997Z,724.00
2023-01-19T08:38:56.908Z,600.00
2023-01-19T08:39:56.829Z,780.00
2023-01-19T08:40:56.731Z,1108.00
2023-01-19T08:41:56.658Z,1360.00
2023-01-19T08:42:56.561Z,1100.00
2023-01-19T08:43:56.468Z,1132.00
2023-01-19T08:44:58.363Z,1156.00
2023-01-19T08:45:56.536Z,1160.00
2023-01-19T08:46:56.203Z,1212.00
2023-01-19T08:47:56.168Z,1252.00
2023-01-19T08:48:56.030Z,1332.00
2023-01-19T08:49:55.938Z,1336.00
2023-01-19T08:50:55.863Z,1308.00
2023-01-19T08:51:55.762Z,1236.00
2023-01-19T08:52:55.673Z,1220.00
2023-01-19T08:53:55.586Z,1224.00
2023-01-19T08:54:55.508Z,1272.00
2023-01-19T08:55:55.411Z,1232.00
2023-01-19T08:56:55.319Z,1284.00
2023-01-19T08:57:55.231Z,1264.00
2023-01-19T08:59:08.110Z,1420.00
2023-01-19T08:59:55.055Z,1496.00
2023-01-19T09:00:55.018Z,2048.00
2023-01-19T09:01:55.120Z,2344.00
2023-01-19T09:02:54.930Z,1892.00
2023-01-19T09:03:54.793Z,1976.00
2023-01-19T09:04:54.960Z,2000.00
2023-01-19T09:05:54.548Z,1972.00
2023-01-19T09:06:54.435Z,1892.00
2023-01-19T09:07:54.346Z,1704.00
2023-01-19T09:08:54.409Z,1868.00
2023-01-19T09:09:54.170Z,1628.00
2023-01-19T09:10:54.079Z,1568.00
2023-01-19T09:11:53.991Z,1516.00
2023-01-19T09:12:53.903Z,1512.00
2023-01-19T09:13:53.823Z,1720.00
2023-01-19T09:14:53.762Z,1844.00
2023-01-19T09:15:53.665Z,1840.00
2023-01-19T09:16:53.550Z,1724.00
2023-01-19T09:17:53.464Z,1844.00
2023-01-19T09:18:53.371Z,1968.00
2023-01-19T09:19:53.312Z,1912.00
2023-01-19T09:20:53.195Z,1856.00
2023-01-19T09:21:53.107Z,1828.00
2023-01-19T09:22:53.016Z,2088.00
2023-01-19T09:23:52.929Z,1952.00
2023-01-19T09:24:52.848Z,2048.00
2023-01-19T09:25:53.003Z,2148.00
2023-01-19T09:26:52.664Z,2328.00
2023-01-19T09:27:52.579Z,2512.00
2023-01-19T09:28:52.506Z,2104.00
2023-01-19T09:29:52.428Z,1972.00
2023-01-19T09:30:52.846Z,1980.00
2023-01-19T09:31:52.329Z,1760.00
2023-01-19T09:32:52.133Z,1872.00
2023-01-19T09:33:52.045Z,1836.00
2023-01-19T09:34:51.958Z,2032.00
2023-01-19T09:35:51.905Z,2236.00
2023-01-19T09:36:52.079Z,2832.00
2023-01-19T09:37:51.692Z,2472.00
2023-01-19T09:38:51.604Z,2212.00
2023-01-19T09:39:51.587Z,1876.00
2023-01-19T09:40:51.433Z,3172.00
2023-01-19T09:41:51.339Z,1780.00
2023-01-19T09:42:51.255Z,1788.00
2023-01-19T09:43:51.162Z,3328.00
2023-01-19T09:44:51.080Z,2624.00
2023-01-19T09:45:50.989Z,2912.00
2023-01-19T09:46:50.919Z,2512.00
2023-01-19T09:47:50.828Z,2920.00
2023-01-19T09:48:50.733Z,2872.00
2023-01-19T09:49:50.637Z,2924.00
2023-01-19T09:50:50.552Z,2768.00
2023-01-19T09:51:50.670Z,3356.00
2023-01-19T09:52:50.371Z,2684.00
2023-01-19T09:53:50.299Z,2716.00
2023-01-19T09:54:50.199Z,2848.00
2023-01-19T09:55:50.111Z,2588.00
2023-01-19T09:56:52.712Z,2196.00
2023-01-19T09:57:49.934Z,2616.00
2023-01-19T09:58:49.963Z,2540.00
2023-01-19T09:59:49.759Z,2968.00
2023-01-19T10:00:49.716Z,2696.00
2023-01-19T10:01:49.597Z,3504.00
2023-01-19T10:02:49.583Z,3440.00
2023-01-19T10:03:49.409Z,3540.00
2023-01-19T10:04:49.328Z,2432.00
2023-01-19T10:05:49.232Z,2724.00
2023-01-19T10:06:49.148Z,3048.00
2023-01-19T10:07:49.112Z,2196.00
2023-01-19T10:08:48.971Z,3260.00
2023-01-19T10:09:48.883Z,2948.00
2023-01-19T10:10:48.796Z,2888.00
2023-01-19T10:11:53.110Z,4600.00
2023-01-19T10:12:48.619Z,3668.00
2023-01-19T10:13:48.536Z,3668.00
2023-01-19T10:14:48.447Z,3460.00
2023-01-19T10:15:48.376Z,2876.00
2023-01-19T10:16:48.520Z,3472.00
2023-01-19T10:17:48.185Z,2844.00
2023-01-19T10:18:48.143Z,2088.00
2023-01-19T10:19:48.011Z,3652.00
2023-01-19T10:20:47.922Z,2928.00
2023-01-19T10:21:47.839Z,2136.00
2023-01-19T10:22:47.743Z,2212.00
2023-01-19T10:23:47.678Z,2584.00
2023-01-19T10:24:47.590Z,2560.00
2023-01-19T10:25:47.534Z,2740.00
2023-01-19T10:26:47.397Z,2776.00
2023-01-19T10:27:47.311Z,2552.00
2023-01-19T10:28:47.216Z,2728.00
2023-01-19T10:29:47.132Z,2772.00
2023-01-19T10:30:47.064Z,2588.00
2023-01-19T10:31:46.973Z,3236.00
2023-01-19T10:32:46.888Z,2636.00
2023-01-19T10:33:46.819Z,2848.00
2023-01-19T10:34:46.689Z,4640.00
2023-01-19T10:35:46.602Z,4212.00
2023-01-19T10:36:46.537Z,4624.00
2023-01-19T10:37:46.505Z,5700.00
2023-01-19T10:38:46.343Z,3868.00
2023-01-19T10:39:46.329Z,3224.00
2023-01-19T10:40:46.210Z,3184.00
2023-01-19T10:41:46.086Z,4168.00
2023-01-19T10:42:45.993Z,4244.00
2023-01-19T10:43:45.919Z,5768.00
2023-01-19T10:44:45.833Z,5196.00
2023-01-19T10:45:45.770Z,5388.00
2023-01-19T10:46:45.638Z,5996.00
2023-01-19T10:47:45.979Z,6912.00
2023-01-19T10:48:45.518Z,5788.00
2023-01-19T10:49:45.683Z,5908.00
2023-01-19T10:50:45.319Z,6044.00
2023-01-19T10:51:45.213Z,7376.00
2023-01-19T10:52:45.119Z,6816.00
2023-01-19T10:53:45.043Z,5312.00
2023-01-19T10:54:44.954Z,4760.00
2023-01-19T10:55:44.890Z,4572.00
2023-01-19T10:56:45.101Z,4184.00
2023-01-19T10:57:44.735Z,3488.00
2023-01-19T10:58:44.598Z,3160.00
2023-01-19T10:59:44.514Z,2396.00
2023-01-19T11:00:44.526Z,1720.00
2023-01-19T11:01:44.566Z,2100.00
2023-01-19T11:02:44.278Z,1668.00
2023-01-19T11:03:44.229Z,1736.00
2023-01-19T11:04:44.108Z,2624.00
2023-01-19T11:05:43.999Z,2280.00
2023-01-19T11:06:43.905Z,2096.00
2023-01-19T11:07:43.824Z,2456.00
2023-01-19T11:08:43.731Z,2120.00
2023-01-19T11:09:43.645Z,2140.00
2023-01-19T11:10:43.557Z,1900.00
2023-01-19T11:11:43.496Z,1688.00
2023-01-19T11:12:43.409Z,1692.00
2023-01-19T11:13:43.301Z,1828.00
2023-01-19T11:14:43.212Z,2320.00
2023-01-19T11:15:43.125Z,2328.00
2023-01-19T11:16:43.066Z,2320.00
2023-01-19T11:17:42.958Z,2624.00
2023-01-19T11:18:42.861Z,2304.00
2023-01-19T11:19:42.777Z,2096.00
2023-01-19T11:20:42.687Z,2260.00
2023-01-19T11:21:42.598Z,2612.00
2023-01-19T11:22:42.511Z,2120.00
2023-01-19T11:23:42.425Z,2240.00
2023-01-19T11:24:42.336Z,2564.00
2023-01-19T11:25:42.251Z,2328.00
2023-01-19T11:26:42.169Z,2340.00
2023-01-19T11:27:42.160Z,2184.00
2023-01-19T11:28:44.782Z,3028.00
2023-01-19T11:29:41.905Z,2788.00
2023-01-19T11:30:41.869Z,2720.00
2023-01-19T11:31:41.777Z,2376.00
2023-01-19T11:32:41.641Z,2352.00
2023-01-19T11:33:41.555Z,1972.00
2023-01-19T11:34:41.469Z,1668.00
2023-01-19T11:35:41.378Z,1696.00
2023-01-19T11:36:41.296Z,2172.00
2023-01-19T11:37:41.206Z,2156.00
2023-01-19T11:38:41.118Z,1684.00
2023-01-19T11:40:00.353Z,1864.00
2023-01-19T11:40:40.956Z,1780.00
2023-01-19T11:42:23.694Z,1496.00
2023-01-19T11:43:23.628Z,1716.00
2023-01-19T11:44:23.525Z,1644.00
2023-01-19T11:45:23.446Z,1672.00
2023-01-19T11:46:23.345Z,1316.00
2023-01-19T11:47:24.482Z,960.00
2023-01-19T12:25:13.111Z,3364.00
2023-01-19T12:26:13.004Z,3348.00
2023-01-19T12:27:12.921Z,3188.00
2023-01-19T12:28:12.833Z,2820.00
2023-01-19T12:29:12.743Z,2696.00
2023-01-19T12:30:12.658Z,2700.00
2023-01-19T12:31:12.755Z,2832.00
2023-01-19T12:32:12.478Z,2896.00
2023-01-19T12:33:12.444Z,2728.00
2023-01-19T12:34:12.311Z,2712.00
2023-01-19T12:35:12.219Z,2820.00
2023-01-19T12:36:12.131Z,2768.00
2023-01-19T12:37:13.692Z,2436.00
2023-01-19T12:38:12.306Z,2720.00
2023-01-19T12:39:11.877Z,2788.00
2023-01-19T12:40:11.793Z,2792.00
2023-01-19T12:41:11.727Z,2692.00
2023-01-19T12:42:11.611Z,2764.00
2023-01-19T12:43:11.526Z,3012.00
2023-01-19T12:44:11.431Z,2972.00
2023-01-19T12:45:11.347Z,3292.00
2023-01-19T12:46:11.282Z,3264.00
2023-01-19T12:47:11.172Z,3200.00
2023-01-19T12:48:11.086Z,3000.00
2023-01-19T12:49:10.998Z,2936.00
2023-01-19T12:50:10.911Z,2624.00
2023-01-19T12:51:10.822Z,2696.00
2023-01-19T12:52:10.738Z,2560.00
2023-01-19T12:53:10.648Z,2468.00
2023-01-19T12:54:10.562Z,2336.00
2023-01-19T12:55:10.477Z,2288.00
2023-01-19T12:56:10.393Z,2244.00
2023-01-19T12:57:10.328Z,2240.00
2023-01-19T12:58:10.214Z,2208.00
2023-01-19T12:59:10.128Z,2212.00
2023-01-19T13:00:10.036Z,2176.00
2023-01-19T13:01:10.085Z,2060.00
2023-01-19T13:02:10.007Z,2060.00
2023-01-19T13:03:09.778Z,1928.00
2023-01-19T13:04:09.798Z,1936.00
2023-01-19T13:05:09.608Z,1936.00
2023-01-19T13:06:09.520Z,1744.00
2023-01-19T13:07:09.432Z,1496.00
2023-01-19T13:08:09.364Z,1468.00
2023-01-19T13:09:09.258Z,1396.00
2023-01-19T13:10:09.170Z,1380.00
2023-01-19T13:11:09.084Z,1300.00
2023-01-19T13:12:08.997Z,1468.00
2023-01-19T13:13:08.934Z,1592.00
2023-01-19T13:14:08.831Z,1712.00
2023-01-19T13:15:08.741Z,1856.00
2023-01-19T13:16:08.679Z,1932.00
2023-01-19T13:17:08.562Z,2012.00
2023-01-19T13:18:08.485Z,2064.00
2023-01-19T13:19:08.394Z,2004.00
2023-01-19T13:20:08.321Z,2028.00
2023-01-19T13:21:08.237Z,2188.00
2023-01-19T13:22:08.176Z,2176.00
2023-01-19T13:23:08.043Z,2520.00
2023-01-19T13:24:07.977Z,2708.00